sensor_id;sensor_type;location;lat;lon;timestamp;P1;durP1;ratioP1;P2;durP2;ratioP2
68987;SDS011;56038;46.080;11.116;2023-04-03T00:00:29;0.47;;;0.30;;
68987;SDS011;56038;46.080;11.116;2023-04-03T00:05:36;0.40;;;0.40;;
68987;SDS011;56038;46.080;11.116;2023-04-03T00:10:40;0.80;;;0.70;;
68987;SDS011;56038;46.080;11.116;2023-04-03T00:15:42;0.80;;;0.80;;
68987;SDS011;56038;46.080;11.116;2023-04-03T00:20:46;0.75;;;0.52;;
68987;SDS011;56038;46.080;11.116;2023-04-03T00:25:48;0.47;;;0.30;;
68987;SDS011;56038;46.080;11.116;2023-04-03T00:30:50;0.68;;;0.68;;
68987;SDS011;56038;46.080;11.116;2023-04-03T00:35:54;0.30;;;0.30;;
68987;SDS011;56038;46.080;11.116;2023-04-03T00:40:56;0.55;;;0.50;;
68987;SDS011;56038;46.080;11.116;2023-04-03T00:45:58;0.55;;;0.55;;
68987;SDS011;56038;46.080;11.116;2023-04-03T00:51:02;0.63;;;0.63;;
68987;SDS011;56038;46.080;11.116;2023-04-03T00:56:08;0.60;;;0.60;;
68987;SDS011;56038;46.080;11.116;2023-04-03T01:01:12;1.10;;;0.60;;
68987;SDS011;56038;46.080;11.116;2023-04-03T01:06:20;0.95;;;0.70;;
68987;SDS011;56038;46.080;11.116;2023-04-03T01:11:25;4.05;;;1.88;;
68987;SDS011;56038;46.080;11.116;2023-04-03T01:16:27;3.78;;;2.60;;
68987;SDS011;56038;46.080;11.116;2023-04-03T01:21:49;6.78;;;2.78;;
68987;SDS011;56038;46.080;11.116;2023-04-03T01:27:03;3.55;;;1.85;;
68987;SDS011;56038;46.080;11.116;2023-04-03T01:32:08;2.53;;;1.25;;
68987;SDS011;56038;46.080;11.116;2023-04-03T01:37:10;2.13;;;1.38;;
68987;SDS011;56038;46.080;11.116;2023-04-03T01:42:12;1.83;;;1.02;;
68987;SDS011;56038;46.080;11.116;2023-04-03T01:47:15;2.28;;;0.85;;
68987;SDS011;56038;46.080;11.116;2023-04-03T01:52:17;2.03;;;1.00;;
68987;SDS011;56038;46.080;11.116;2023-04-03T01:57:18;1.02;;;0.80;;
68987;SDS011;56038;46.080;11.116;2023-04-03T02:02:22;3.40;;;1.10;;
68987;SDS011;56038;46.080;11.116;2023-04-03T02:07:23;0.90;;;0.70;;
68987;SDS011;56038;46.080;11.116;2023-04-03T02:12:25;0.88;;;0.63;;
68987;SDS011;56038;46.080;11.116;2023-04-03T02:17:28;0.40;;;0.35;;
68987;SDS011;56038;46.080;11.116;2023-04-03T02:22:30;2.33;;;0.70;;
68987;SDS011;56038;46.080;11.116;2023-04-03T02:27:32;0.50;;;0.50;;
68987;SDS011;56038;46.080;11.116;2023-04-03T02:32:36;0.55;;;0.50;;
68987;SDS011;56038;46.080;11.116;2023-04-03T02:37:38;0.50;;;0.50;;
68987;SDS011;56038;46.080;11.116;2023-04-03T02:42:40;1.38;;;0.60;;
68987;SDS011;56038;46.080;11.116;2023-04-03T02:47:43;1.00;;;0.60;;
68987;SDS011;56038;46.080;11.116;2023-04-03T02:52:45;0.73;;;0.50;;
68987;SDS011;56038;46.080;11.116;2023-04-03T02:57:47;0.55;;;0.55;;
68987;SDS011;56038;46.080;11.116;2023-04-03T03:02:50;0.30;;;0.30;;
68987;SDS011;56038;46.080;11.116;2023-04-03T03:07:52;0.60;;;0.60;;
68987;SDS011;56038;46.080;11.116;2023-04-03T03:12:55;0.52;;;0.47;;
68987;SDS011;56038;46.080;11.116;2023-04-03T03:17:58;0.40;;;0.40;;
68987;SDS011;56038;46.080;11.116;2023-04-03T03:23:00;0.30;;;0.30;;
68987;SDS011;56038;46.080;11.116;2023-04-03T03:28:02;0.52;;;0.52;;
68987;SDS011;56038;46.080;11.116;2023-04-03T03:33:05;0.85;;;0.40;;
68987;SDS011;56038;46.080;11.116;2023-04-03T03:38:07;1.55;;;0.80;;
68987;SDS011;56038;46.080;11.116;2023-04-03T03:43:09;0.50;;;0.40;;
68987;SDS011;56038;46.080;11.116;2023-04-03T03:48:12;0.30;;;0.30;;
68987;SDS011;56038;46.080;11.116;2023-04-03T03:53:14;0.50;;;0.40;;
68987;SDS011;56038;46.080;11.116;2023-04-03T03:58:16;0.80;;;0.50;;
68987;SDS011;56038;46.080;11.116;2023-04-03T04:03:19;0.70;;;0.50;;
68987;SDS011;56038;46.080;11.116;2023-04-03T04:08:21;0.40;;;0.40;;
68987;SDS011;56038;46.080;11.116;2023-04-03T04:13:23;0.63;;;0.50;;
68987;SDS011;56038;46.080;11.116;2023-04-03T04:18:26;0.70;;;0.43;;
68987;SDS011;56038;46.080;11.116;2023-04-03T04:23:28;0.40;;;0.40;;
68987;SDS011;56038;46.080;11.116;2023-04-03T04:28:30;0.68;;;0.50;;
68987;SDS011;56038;46.080;11.116;2023-04-03T04:33:33;0.68;;;0.60;;
68987;SDS011;56038;46.080;11.116;2023-04-03T04:38:34;1.48;;;0.60;;
68987;SDS011;56038;46.080;11.116;2023-04-03T04:43:37;1.38;;;0.50;;
68987;SDS011;56038;46.080;11.116;2023-04-03T04:48:40;0.75;;;0.75;;
68987;SDS011;56038;46.080;11.116;2023-04-03T04:53:42;1.38;;;0.60;;
68987;SDS011;56038;46.080;11.116;2023-04-03T04:58:45;0.85;;;0.50;;
68987;SDS011;56038;46.080;11.116;2023-04-03T05:03:48;0.60;;;0.60;;
68987;SDS011;56038;46.080;11.116;2023-04-03T05:08:49;0.60;;;0.40;;
68987;SDS011;56038;46.080;11.116;2023-04-03T05:13:51;0.60;;;0.60;;
68987;SDS011;56038;46.080;11.116;2023-04-03T05:18:54;1.35;;;0.60;;
68987;SDS011;56038;46.080;11.116;2023-04-03T05:23:56;0.73;;;0.52;;
68987;SDS011;56038;46.080;11.116;2023-04-03T05:28:58;2.10;;;0.93;;
68987;SDS011;56038;46.080;11.116;2023-04-03T05:34:01;0.95;;;0.70;;
68987;SDS011;56038;46.080;11.116;2023-04-03T05:39:03;1.00;;;0.63;;
68987;SDS011;56038;46.080;11.116;2023-04-03T05:44:05;4.53;;;0.95;;
68987;SDS011;56038;46.080;11.116;2023-04-03T05:49:08;1.17;;;1.00;;
68987;SDS011;56038;46.080;11.116;2023-04-03T05:54:11;0.93;;;0.82;;
68987;SDS011;56038;46.080;11.116;2023-04-03T05:59:17;1.38;;;0.98;;
68987;SDS011;56038;46.080;11.116;2023-04-03T06:04:21;1.88;;;1.13;;
68987;SDS011;56038;46.080;11.116;2023-04-03T06:09:23;2.63;;;1.17;;
68987;SDS011;56038;46.080;11.116;2023-04-03T06:14:26;1.60;;;1.20;;
68987;SDS011;56038;46.080;11.116;2023-04-03T06:19:30;2.42;;;0.90;;
68987;SDS011;56038;46.080;11.116;2023-04-03T06:24:31;2.53;;;1.38;;
68987;SDS011;56038;46.080;11.116;2023-04-03T06:29:33;2.95;;;1.00;;
68987;SDS011;56038;46.080;11.116;2023-04-03T06:34:37;2.40;;;0.90;;
68987;SDS011;56038;46.080;11.116;2023-04-03T06:39:38;1.65;;;0.95;;
68987;SDS011;56038;46.080;11.116;2023-04-03T06:44:40;0.70;;;0.70;;
68987;SDS011;56038;46.080;11.116;2023-04-03T06:49:43;0.95;;;0.85;;
68987;SDS011;56038;46.080;11.116;2023-04-03T06:54:46;4.50;;;2.58;;
68987;SDS011;56038;46.080;11.116;2023-04-03T06:59:48;1.33;;;1.00;;
68987;SDS011;56038;46.080;11.116;2023-04-03T07:04:51;0.85;;;0.52;;
68987;SDS011;56038;46.080;11.116;2023-04-03T07:09:53;1.55;;;0.80;;
68987;SDS011;56038;46.080;11.116;2023-04-03T07:14:54;0.93;;;0.80;;
68987;SDS011;56038;46.080;11.116;2023-04-03T07:19:57;0.70;;;0.70;;
68987;SDS011;56038;46.080;11.116;2023-04-03T07:24:59;1.45;;;0.70;;
68987;SDS011;56038;46.080;11.116;2023-04-03T07:30:01;0.75;;;0.57;;
68987;SDS011;56038;46.080;11.116;2023-04-03T07:35:05;1.35;;;0.90;;
68987;SDS011;56038;46.080;11.116;2023-04-03T07:40:07;0.60;;;0.50;;
68987;SDS011;56038;46.080;11.116;2023-04-03T07:45:10;0.90;;;0.60;;
68987;SDS011;56038;46.080;11.116;2023-04-03T07:50:13;0.70;;;0.47;;
68987;SDS011;56038;46.080;11.116;2023-04-03T07:55:15;0.50;;;0.50;;
68987;SDS011;56038;46.080;11.116;2023-04-03T08:00:17;1.10;;;0.45;;
68987;SDS011;56038;46.080;11.116;2023-04-03T08:05:22;1.15;;;0.30;;
68987;SDS011;56038;46.080;11.116;2023-04-03T08:10:30;0.95;;;0.30;;
68987;SDS011;56038;46.080;11.116;2023-04-03T08:15:32;0.10;;;0.10;;
68987;SDS011;56038;46.080;11.116;2023-04-03T08:20:35;0.80;;;0.17;;
68987;SDS011;56038;46.080;11.116;2023-04-03T08:25:40;0.17;;;0.17;;
68987;SDS011;56038;46.080;11.116;2023-04-03T08:30:42;0.10;;;0.10;;
68987;SDS011;56038;46.080;11.116;2023-04-03T08:35:45;0.25;;;0.25;;
68987;SDS011;56038;46.080;11.116;2023-04-03T08:40:47;1.95;;;0.22;;
68987;SDS011;56038;46.080;11.116;2023-04-03T08:46:00;0.30;;;0.22;;
68987;SDS011;56038;46.080;11.116;2023-04-03T08:51:10;0.20;;;0.20;;
68987;SDS011;56038;46.080;11.116;2023-04-03T08:56:16;0.30;;;0.20;;
68987;SDS011;56038;46.080;11.116;2023-04-03T09:01:21;5.80;;;3.35;;
68987;SDS011;56038;46.080;11.116;2023-04-03T09:06:29;2.42;;;0.40;;
68987;SDS011;56038;46.080;11.116;2023-04-03T09:11:36;0.30;;;0.10;;
68987;SDS011;56038;46.080;11.116;2023-04-03T09:16:48;0.15;;;0.13;;
68987;SDS011;56038;46.080;11.116;2023-04-03T09:21:56;1.50;;;0.10;;
68987;SDS011;56038;46.080;11.116;2023-04-03T09:26:59;0.43;;;0.20;;
68987;SDS011;56038;46.080;11.116;2023-04-03T09:32:12;0.00;;;0.00;;
68987;SDS011;56038;46.080;11.116;2023-04-03T09:42:38;0.10;;;0.10;;
68987;SDS011;56038;46.080;11.116;2023-04-03T09:47:42;1.38;;;0.20;;
68987;SDS011;56038;46.080;11.116;2023-04-03T09:52:46;0.10;;;0.10;;
68987;SDS011;56038;46.080;11.116;2023-04-03T09:57:49;0.03;;;0.00;;
68987;SDS011;56038;46.080;11.116;2023-04-03T10:02:51;0.10;;;0.10;;
68987;SDS011;56038;46.080;11.116;2023-04-03T10:08:08;0.10;;;0.10;;
68987;SDS011;56038;46.080;11.116;2023-04-03T10:13:21;0.05;;;0.05;;
68987;SDS011;56038;46.080;11.116;2023-04-03T10:18:31;0.17;;;0.17;;
68987;SDS011;56038;46.080;11.116;2023-04-03T10:23:42;0.52;;;0.10;;
68987;SDS011;56038;46.080;11.116;2023-04-03T10:28:48;0.10;;;0.00;;
68987;SDS011;56038;46.080;11.116;2023-04-03T10:34:00;0.10;;;0.10;;
68987;SDS011;56038;46.080;11.116;2023-04-03T10:39:11;0.15;;;0.00;;
68987;SDS011;56038;46.080;11.116;2023-04-03T10:44:25;0.45;;;0.10;;
68987;SDS011;56038;46.080;11.116;2023-04-03T10:49:35;0.15;;;0.10;;
68987;SDS011;56038;46.080;11.116;2023-04-03T10:54:49;0.10;;;0.10;;
68987;SDS011;56038;46.080;11.116;2023-04-03T11:00:01;0.20;;;0.20;;
68987;SDS011;56038;46.080;11.116;2023-04-03T11:05:14;2.17;;;0.30;;
68987;SDS011;56038;46.080;11.116;2023-04-03T11:10:35;0.10;;;0.10;;
68987;SDS011;56038;46.080;11.116;2023-04-03T11:15:42;0.00;;;0.00;;
68987;SDS011;56038;46.080;11.116;2023-04-03T11:20:47;0.00;;;0.00;;
68987;SDS011;56038;46.080;11.116;2023-04-03T11:25:57;0.20;;;0.15;;
68987;SDS011;56038;46.080;11.116;2023-04-03T11:31:12;0.30;;;0.10;;
68987;SDS011;56038;46.080;11.116;2023-04-03T11:36:23;0.13;;;0.10;;
68987;SDS011;56038;46.080;11.116;2023-04-03T11:41:31;0.20;;;0.20;;
68987;SDS011;56038;46.080;11.116;2023-04-03T11:51:43;0.10;;;0.00;;
68987;SDS011;56038;46.080;11.116;2023-04-03T11:56:47;0.52;;;0.20;;
68987;SDS011;56038;46.080;11.116;2023-04-03T12:01:48;0.20;;;0.20;;
68987;SDS011;56038;46.080;11.116;2023-04-03T12:06:54;0.32;;;0.10;;
68987;SDS011;56038;46.080;11.116;2023-04-03T12:17:28;1.20;;;0.75;;
68987;SDS011;56038;46.080;11.116;2023-04-03T12:22:30;1.10;;;0.17;;
68987;SDS011;56038;46.080;11.116;2023-04-03T12:27:36;0.00;;;0.00;;
68987;SDS011;56038;46.080;11.116;2023-04-03T12:38:21;0.00;;;0.00;;
68987;SDS011;56038;46.080;11.116;2023-04-03T12:43:43;0.05;;;0.00;;
68987;SDS011;56038;46.080;11.116;2023-04-03T12:48:57;0.00;;;0.00;;
68987;SDS011;56038;46.080;11.116;2023-04-03T12:54:01;0.00;;;0.00;;
68987;SDS011;56038;46.080;11.116;2023-04-03T12:59:14;4.95;;;0.20;;
68987;SDS011;56038;46.080;11.116;2023-04-03T13:04:17;0.00;;;0.00;;
68987;SDS011;56038;46.080;11.116;2023-04-03T13:09:20;0.45;;;0.00;;
68987;SDS011;56038;46.080;11.116;2023-04-03T13:14:25;0.00;;;0.00;;
68987;SDS011;56038;46.080;11.116;2023-04-03T13:19:28;0.00;;;0.00;;
68987;SDS011;56038;46.080;11.116;2023-04-03T13:24:30;0.80;;;0.15;;
68987;SDS011;56038;46.080;11.116;2023-04-03T13:29:37;0.10;;;0.10;;
68987;SDS011;56038;46.080;11.116;2023-04-03T13:34:41;0.08;;;0.08;;
68987;SDS011;56038;46.080;11.116;2023-04-03T13:44:48;0.20;;;0.10;;
68987;SDS011;56038;46.080;11.116;2023-04-03T13:50:00;0.10;;;0.00;;
68987;SDS011;56038;46.080;11.116;2023-04-03T13:55:15;2.80;;;0.20;;
68987;SDS011;56038;46.080;11.116;2023-04-03T14:00:22;0.00;;;0.00;;
68987;SDS011;56038;46.080;11.116;2023-04-03T14:05:34;0.10;;;0.10;;
68987;SDS011;56038;46.080;11.116;2023-04-03T14:10:36;0.10;;;0.10;;
68987;SDS011;56038;46.080;11.116;2023-04-03T14:15:39;0.00;;;0.00;;
68987;SDS011;56038;46.080;11.116;2023-04-03T14:20:42;0.10;;;0.10;;
68987;SDS011;56038;46.080;11.116;2023-04-03T14:25:44;0.47;;;0.17;;
68987;SDS011;56038;46.080;11.116;2023-04-03T14:30:49;1.40;;;0.20;;
68987;SDS011;56038;46.080;11.116;2023-04-03T14:35:51;0.30;;;0.10;;
68987;SDS011;56038;46.080;11.116;2023-04-03T14:40:53;0.10;;;0.05;;
68987;SDS011;56038;46.080;11.116;2023-04-03T14:45:57;1.58;;;0.20;;
68987;SDS011;56038;46.080;11.116;2023-04-03T14:50:58;0.17;;;0.17;;
68987;SDS011;56038;46.080;11.116;2023-04-03T14:56:00;3.08;;;0.73;;
68987;SDS011;56038;46.080;11.116;2023-04-03T15:01:03;0.20;;;0.15;;
68987;SDS011;56038;46.080;11.116;2023-04-03T15:06:05;0.15;;;0.10;;
68987;SDS011;56038;46.080;11.116;2023-04-03T15:11:07;0.30;;;0.20;;
68987;SDS011;56038;46.080;11.116;2023-04-03T15:16:14;0.10;;;0.10;;
68987;SDS011;56038;46.080;11.116;2023-04-03T15:21:19;0.43;;;0.10;;
68987;SDS011;56038;46.080;11.116;2023-04-03T15:26:20;0.57;;;0.10;;
68987;SDS011;56038;46.080;11.116;2023-04-03T15:31:24;1.75;;;0.20;;
68987;SDS011;56038;46.080;11.116;2023-04-03T15:36:25;1.08;;;0.10;;
68987;SDS011;56038;46.080;11.116;2023-04-03T15:41:27;3.75;;;0.65;;
68987;SDS011;56038;46.080;11.116;2023-04-03T15:46:30;0.20;;;0.20;;
68987;SDS011;56038;46.080;11.116;2023-04-03T15:51:33;0.23;;;0.20;;
68987;SDS011;56038;46.080;11.116;2023-04-03T15:56:35;2.53;;;0.20;;
68987;SDS011;56038;46.080;11.116;2023-04-03T16:01:38;1.77;;;0.65;;
68987;SDS011;56038;46.080;11.116;2023-04-03T16:06:40;8.63;;;1.35;;
68987;SDS011;56038;46.080;11.116;2023-04-03T16:11:43;2.53;;;1.08;;
68987;SDS011;56038;46.080;11.116;2023-04-03T16:16:46;0.90;;;0.90;;
68987;SDS011;56038;46.080;11.116;2023-04-03T16:21:48;0.85;;;0.50;;
68987;SDS011;56038;46.080;11.116;2023-04-03T16:26:50;0.30;;;0.30;;
68987;SDS011;56038;46.080;11.116;2023-04-03T16:31:54;1.35;;;0.82;;
68987;SDS011;56038;46.080;11.116;2023-04-03T16:36:57;1.42;;;0.75;;
68987;SDS011;56038;46.080;11.116;2023-04-03T16:41:59;4.55;;;1.65;;
68987;SDS011;56038;46.080;11.116;2023-04-03T16:47:02;5.95;;;2.33;;
68987;SDS011;56038;46.080;11.116;2023-04-03T16:52:04;1.88;;;1.13;;
68987;SDS011;56038;46.080;11.116;2023-04-03T16:57:06;2.30;;;0.80;;
68987;SDS011;56038;46.080;11.116;2023-04-03T17:02:10;5.55;;;1.55;;
68987;SDS011;56038;46.080;11.116;2023-04-03T17:07:11;0.65;;;0.60;;
68987;SDS011;56038;46.080;11.116;2023-04-03T17:12:13;0.40;;;0.40;;
68987;SDS011;56038;46.080;11.116;2023-04-03T17:17:17;2.40;;;0.50;;
68987;SDS011;56038;46.080;11.116;2023-04-03T17:22:22;0.70;;;0.70;;
68987;SDS011;56038;46.080;11.116;2023-04-03T17:27:24;0.40;;;0.40;;
68987;SDS011;56038;46.080;11.116;2023-04-03T17:32:27;0.65;;;0.30;;
68987;SDS011;56038;46.080;11.116;2023-04-03T17:37:29;0.40;;;0.40;;
68987;SDS011;56038;46.080;11.116;2023-04-03T17:42:31;0.40;;;0.40;;
68987;SDS011;56038;46.080;11.116;2023-04-03T17:47:34;0.40;;;0.40;;
68987;SDS011;56038;46.080;11.116;2023-04-03T17:52:35;1.45;;;0.57;;
68987;SDS011;56038;46.080;11.116;2023-04-03T17:57:37;0.30;;;0.30;;
68987;SDS011;56038;46.080;11.116;2023-04-03T18:02:40;0.20;;;0.20;;
68987;SDS011;56038;46.080;11.116;2023-04-03T18:07:43;0.30;;;0.30;;
68987;SDS011;56038;46.080;11.116;2023-04-03T18:12:44;1.25;;;0.40;;
68987;SDS011;56038;46.080;11.116;2023-04-03T18:17:48;0.30;;;0.30;;
68987;SDS011;56038;46.080;11.116;2023-04-03T18:22:55;0.30;;;0.30;;
68987;SDS011;56038;46.080;11.116;2023-04-03T18:27:57;0.40;;;0.32;;
68987;SDS011;56038;46.080;11.116;2023-04-03T18:33:03;1.65;;;0.32;;
68987;SDS011;56038;46.080;11.116;2023-04-03T18:38:05;0.40;;;0.40;;
68987;SDS011;56038;46.080;11.116;2023-04-03T18:43:07;0.80;;;0.50;;
68987;SDS011;56038;46.080;11.116;2023-04-03T18:48:10;0.55;;;0.47;;
68987;SDS011;56038;46.080;11.116;2023-04-03T18:53:12;0.20;;;0.20;;
68987;SDS011;56038;46.080;11.116;2023-04-03T18:58:14;0.77;;;0.60;;
68987;SDS011;56038;46.080;11.116;2023-04-03T19:03:17;0.30;;;0.30;;
68987;SDS011;56038;46.080;11.116;2023-04-03T19:08:19;0.30;;;0.30;;
68987;SDS011;56038;46.080;11.116;2023-04-03T19:13:21;0.28;;;0.28;;
68987;SDS011;56038;46.080;11.116;2023-04-03T19:18:24;0.43;;;0.40;;
68987;SDS011;56038;46.080;11.116;2023-04-03T19:23:27;0.38;;;0.28;;
68987;SDS011;56038;46.080;11.116;2023-04-03T19:28:31;0.30;;;0.30;;
68987;SDS011;56038;46.080;11.116;2023-04-03T19:33:34;1.30;;;1.08;;
68987;SDS011;56038;46.080;11.116;2023-04-03T19:38:36;0.63;;;0.50;;
68987;SDS011;56038;46.080;11.116;2023-04-03T19:43:38;2.13;;;0.40;;
68987;SDS011;56038;46.080;11.116;2023-04-03T19:48:42;0.40;;;0.40;;
68987;SDS011;56038;46.080;11.116;2023-04-03T19:53:45;0.40;;;0.40;;
68987;SDS011;56038;46.080;11.116;2023-04-03T19:58:47;0.30;;;0.30;;
68987;SDS011;56038;46.080;11.116;2023-04-03T20:03:54;0.50;;;0.33;;
68987;SDS011;56038;46.080;11.116;2023-04-03T20:08:56;0.47;;;0.47;;
68987;SDS011;56038;46.080;11.116;2023-04-03T20:13:58;1.45;;;0.40;;
68987;SDS011;56038;46.080;11.116;2023-04-03T20:19:02;0.90;;;0.60;;
68987;SDS011;56038;46.080;11.116;2023-04-03T20:24:06;1.15;;;0.30;;
68987;SDS011;56038;46.080;11.116;2023-04-03T20:29:08;1.17;;;0.40;;
68987;SDS011;56038;46.080;11.116;2023-04-03T20:34:12;1.65;;;0.52;;
68987;SDS011;56038;46.080;11.116;2023-04-03T20:39:14;0.30;;;0.30;;
68987;SDS011;56038;46.080;11.116;2023-04-03T20:44:17;1.05;;;0.40;;
68987;SDS011;56038;46.080;11.116;2023-04-03T20:49:22;0.45;;;0.45;;
68987;SDS011;56038;46.080;11.116;2023-04-03T20:54:24;0.85;;;0.63;;
68987;SDS011;56038;46.080;11.116;2023-04-03T20:59:27;0.45;;;0.45;;
68987;SDS011;56038;46.080;11.116;2023-04-03T21:04:33;0.75;;;0.50;;
68987;SDS011;56038;46.080;11.116;2023-04-03T21:20:49;1.23;;;0.50;;
68987;SDS011;56038;46.080;11.116;2023-04-03T21:25:51;0.47;;;0.47;;
68987;SDS011;56038;46.080;11.116;2023-04-03T21:30:53;0.88;;;0.47;;
68987;SDS011;56038;46.080;11.116;2023-04-03T21:35:56;0.77;;;0.60;;
68987;SDS011;56038;46.080;11.116;2023-04-03T21:40:58;0.20;;;0.20;;
68987;SDS011;56038;46.080;11.116;2023-04-03T21:46:00;1.48;;;0.45;;
68987;SDS011;56038;46.080;11.116;2023-04-03T21:51:05;0.30;;;0.30;;
68987;SDS011;56038;46.080;11.116;2023-04-03T21:56:07;1.02;;;0.60;;
68987;SDS011;56038;46.080;11.116;2023-04-03T22:01:09;0.28;;;0.28;;
68987;SDS011;56038;46.080;11.116;2023-04-03T22:06:14;0.50;;;0.40;;
68987;SDS011;56038;46.080;11.116;2023-04-03T22:11:16;0.50;;;0.45;;
68987;SDS011;56038;46.080;11.116;2023-04-03T22:16:18;0.30;;;0.30;;
68987;SDS011;56038;46.080;11.116;2023-04-03T22:21:23;0.50;;;0.50;;
68987;SDS011;56038;46.080;11.116;2023-04-03T22:26:25;0.50;;;0.50;;
68987;SDS011;56038;46.080;11.116;2023-04-03T22:31:26;0.43;;;0.40;;
68987;SDS011;56038;46.080;11.116;2023-04-03T22:36:30;1.17;;;0.50;;
68987;SDS011;56038;46.080;11.116;2023-04-03T22:41:31;0.35;;;0.35;;
68987;SDS011;56038;46.080;11.116;2023-04-03T22:46:33;0.73;;;0.40;;
68987;SDS011;56038;46.080;11.116;2023-04-03T22:51:36;0.60;;;0.50;;
68987;SDS011;56038;46.080;11.116;2023-04-03T22:56:38;0.52;;;0.43;;
68987;SDS011;56038;46.080;11.116;2023-04-03T23:01:40;0.40;;;0.40;;
68987;SDS011;56038;46.080;11.116;2023-04-03T23:06:43;0.65;;;0.65;;
68987;SDS011;56038;46.080;11.116;2023-04-03T23:11:44;0.47;;;0.35;;
68987;SDS011;56038;46.080;11.116;2023-04-03T23:16:46;0.40;;;0.40;;
68987;SDS011;56038;46.080;11.116;2023-04-03T23:21:49;0.82;;;0.57;;
68987;SDS011;56038;46.080;11.116;2023-04-03T23:26:51;0.60;;;0.40;;
68987;SDS011;56038;46.080;11.116;2023-04-03T23:31:52;0.80;;;0.38;;
68987;SDS011;56038;46.080;11.116;2023-04-03T23:36:56;0.43;;;0.43;;
68987;SDS011;56038;46.080;11.116;2023-04-03T23:41:58;0.52;;;0.30;;
68987;SDS011;56038;46.080;11.116;2023-04-03T23:46:59;0.35;;;0.35;;
68987;SDS011;56038;46.080;11.116;2023-04-03T23:52:02;0.73;;;0.43;;
68987;SDS011;56038;46.080;11.116;2023-04-03T23:57:05;0.35;;;0.35;;
